createdAt,value
2022-11-21T00:01:16.607Z,10.93
2022-11-21T00:03:44.108Z,18.40
2022-11-21T00:06:11.521Z,14.88
2022-11-21T00:08:39.065Z,14.05
2022-11-21T00:11:06.089Z,19.33
2022-11-21T00:13:33.180Z,10.77
2022-11-21T00:16:08.313Z,12.18
2022-11-21T00:18:36.035Z,14.23
2022-11-21T00:21:13.604Z,12.73
2022-11-21T00:23:40.719Z,8.70
2022-11-21T00:26:09.140Z,13.68
2022-11-21T00:28:37.151Z,8.75
2022-11-21T00:31:05.245Z,10.52
2022-11-21T00:33:34.363Z,16.58
2022-11-21T00:36:09.495Z,8.18
2022-11-21T00:38:37.206Z,11.32
2022-11-21T00:41:04.812Z,11.30
2022-11-21T00:43:32.571Z,10.02
2022-11-21T00:46:01.579Z,8.45
2022-11-21T00:48:30.088Z,9.60
2022-11-21T00:50:57.874Z,13.68
2022-11-21T00:53:24.897Z,12.75
2022-11-21T00:55:51.838Z,11.93
2022-11-21T00:58:18.898Z,10.43
2022-11-21T01:00:46.226Z,6.93
2022-11-21T01:03:13.500Z,12.93
2022-11-21T01:05:40.543Z,13.90
2022-11-21T01:08:08.241Z,12.23
2022-11-21T01:10:36.636Z,10.23
2022-11-21T01:13:03.848Z,11.73
2022-11-21T01:15:31.228Z,14.30
2022-11-21T01:17:58.348Z,10.27
2022-11-21T01:20:25.330Z,17.73
2022-11-21T01:22:52.513Z,15.85
2022-11-21T01:25:19.519Z,11.98
2022-11-21T01:27:46.727Z,11.60
2022-11-21T01:30:14.655Z,10.18
2022-11-21T01:32:41.687Z,13.57
2022-11-21T01:35:08.988Z,13.45
2022-11-21T01:37:35.944Z,15.20
2022-11-21T01:40:03.681Z,9.82
2022-11-21T01:43:02.653Z,12.10
2022-11-21T01:45:51.045Z,13.18
2022-11-21T01:48:18.979Z,10.68
2022-11-21T01:50:46.368Z,15.70
2022-11-21T01:53:13.416Z,11.77
2022-11-21T01:55:40.430Z,21.40
2022-11-21T01:58:07.530Z,11.88
2022-11-21T02:00:39.765Z,16.52
2022-11-21T02:03:12.513Z,10.93
2022-11-21T02:05:40.815Z,12.40
2022-11-21T02:08:14.623Z,11.85
2022-11-21T02:11:02.995Z,8.85
2022-11-21T02:13:30.084Z,12.63
2022-11-21T02:15:57.605Z,11.55
2022-11-21T02:18:24.469Z,12.27
2022-11-21T02:20:58.026Z,8.95
2022-11-21T02:23:37.255Z,11.70
2022-11-21T02:26:04.929Z,14.88
2022-11-21T02:28:32.114Z,16.67
2022-11-21T02:30:59.160Z,11.32
2022-11-21T02:33:26.115Z,13.77
2022-11-21T02:35:58.202Z,11.18
2022-11-21T02:38:35.225Z,12.82
2022-11-21T02:41:02.351Z,8.57
2022-11-21T02:43:34.203Z,14.98
2022-11-21T02:46:01.433Z,12.30
2022-11-21T02:48:28.516Z,12.23
2022-11-21T02:50:55.803Z,13.65
2022-11-21T02:53:22.905Z,9.75
2022-11-21T02:55:50.088Z,11.30
2022-11-21T02:58:17.327Z,12.55
2022-11-21T03:00:44.850Z,13.55
2022-11-21T03:03:12.460Z,11.82
2022-11-21T03:05:40.661Z,10.35
2022-11-21T03:08:08.172Z,5.95
2022-11-21T03:10:35.121Z,11.57
2022-11-21T03:13:03.283Z,9.80
2022-11-21T03:15:35.552Z,12.20
2022-11-21T03:18:03.825Z,9.05
2022-11-21T03:20:32.375Z,20.52
2022-11-21T03:22:59.435Z,10.07
2022-11-21T03:25:26.824Z,10.80
2022-11-21T03:27:54.532Z,12.80
2022-11-21T03:30:23.995Z,9.93
2022-11-21T03:32:50.976Z,11.57
2022-11-21T03:35:18.092Z,20.38
2022-11-21T03:37:44.997Z,10.20
2022-11-21T03:40:12.559Z,13.73
2022-11-21T03:42:39.977Z,15.23
2022-11-21T03:45:07.790Z,12.93
2022-11-21T03:47:34.754Z,9.82
2022-11-21T03:50:01.759Z,9.00
2022-11-21T03:52:28.913Z,11.68
2022-11-21T03:54:56.251Z,11.90
2022-11-21T03:57:23.133Z,14.50
2022-11-21T03:59:50.148Z,14.23
2022-11-21T04:02:17.244Z,9.25
2022-11-21T04:04:44.374Z,7.03
2022-11-21T04:07:12.139Z,10.50
2022-11-21T04:09:39.268Z,8.50
2022-11-21T04:12:07.868Z,12.52
2022-11-21T04:14:35.417Z,21.20
2022-11-21T04:17:02.620Z,15.02
2022-11-21T04:19:29.679Z,7.68
2022-11-21T04:21:56.579Z,15.60
2022-11-21T04:24:23.923Z,12.63
2022-11-21T04:26:50.967Z,12.35
2022-11-21T04:29:17.806Z,16.02
2022-11-21T04:31:44.890Z,14.38
2022-11-21T04:34:11.932Z,9.30
2022-11-21T04:36:38.935Z,9.80
2022-11-21T04:39:05.992Z,11.60
2022-11-21T04:41:33.357Z,11.15
2022-11-21T04:44:00.750Z,11.93
2022-11-21T04:46:27.760Z,13.77
2022-11-21T04:48:54.715Z,14.50
2022-11-21T04:51:21.724Z,8.20
2022-11-21T04:53:48.802Z,8.95
2022-11-21T04:56:16.555Z,13.38
2022-11-21T04:58:44.809Z,12.50
2022-11-21T05:01:12.155Z,13.32
2022-11-21T05:03:39.133Z,11.70
2022-11-21T05:06:06.187Z,12.05
2022-11-21T05:08:33.232Z,16.45
2022-11-21T05:11:18.868Z,12.90
2022-11-21T05:13:45.874Z,11.95
2022-11-21T05:16:13.031Z,13.38
2022-11-21T05:18:40.137Z,21.15
2022-11-21T05:21:07.119Z,22.38
2022-11-21T05:23:33.988Z,15.25
2022-11-21T05:26:01.065Z,17.60
2022-11-21T05:28:28.485Z,17.90
2022-11-21T05:30:55.416Z,20.88
2022-11-21T05:33:22.525Z,15.45
2022-11-21T05:35:49.569Z,15.82
2022-11-21T05:38:16.708Z,20.65
2022-11-21T05:40:43.769Z,18.85
2022-11-21T05:43:31.055Z,23.80
2022-11-21T05:45:58.879Z,21.35
2022-11-21T05:48:26.075Z,20.42
2022-11-21T05:50:53.041Z,13.88
2022-11-21T05:53:20.150Z,16.98
2022-11-21T05:55:47.522Z,23.98
2022-11-21T05:58:16.636Z,23.42
2022-11-21T06:00:43.729Z,24.85
2022-11-21T06:03:27.148Z,25.15
2022-11-21T06:06:20.845Z,19.25
2022-11-21T06:08:49.221Z,34.13
2022-11-21T06:11:16.865Z,34.67
2022-11-21T06:13:44.610Z,33.10
2022-11-21T06:16:20.167Z,39.10
2022-11-21T06:18:50.775Z,39.38
2022-11-21T06:21:25.203Z,33.33
2022-11-21T06:26:24.127Z,34.75
2022-11-21T06:28:51.986Z,26.90
2022-11-21T06:31:24.137Z,23.58
2022-11-21T06:36:26.011Z,36.03
2022-11-21T06:38:56.459Z,24.17
2022-11-21T06:41:25.646Z,27.65
2022-11-21T06:43:53.204Z,22.60
2022-11-21T06:46:20.405Z,20.00
2022-11-21T06:48:49.948Z,28.08
2022-11-21T06:51:19.350Z,26.90
2022-11-21T06:53:48.210Z,28.33
2022-11-21T06:56:15.570Z,20.80
2022-11-21T06:58:42.570Z,12.05
2022-11-21T07:01:11.986Z,19.27
2022-11-21T07:03:39.501Z,16.40
2022-11-21T07:06:06.925Z,14.30
2022-11-21T07:08:36.096Z,16.52
2022-11-21T07:11:24.443Z,19.08
2022-11-21T07:13:52.287Z,19.55
2022-11-21T07:16:19.423Z,17.08
2022-11-21T07:18:46.293Z,16.50
2022-11-21T07:21:13.281Z,17.20
2022-11-21T07:23:40.284Z,8.80
2022-11-21T07:26:09.940Z,16.05
2022-11-21T07:28:37.017Z,7.85
2022-11-21T07:31:10.039Z,12.75
2022-11-21T07:33:40.230Z,10.55
2022-11-21T07:36:07.571Z,15.40
2022-11-21T07:38:34.647Z,6.97
2022-11-21T07:41:02.898Z,7.63
2022-11-21T07:43:30.309Z,10.25
2022-11-21T07:45:57.634Z,6.32
2022-11-21T07:48:24.646Z,11.68
2022-11-21T07:50:51.825Z,7.68
2022-11-21T07:53:18.821Z,9.68
2022-11-21T07:55:45.691Z,13.65
2022-11-21T07:58:16.056Z,7.35
2022-11-21T08:00:43.554Z,8.65
2022-11-21T08:03:12.639Z,8.35
2022-11-21T08:05:44.364Z,9.90
2022-11-21T08:08:13.149Z,11.82
2022-11-21T08:10:42.860Z,8.50
2022-11-21T08:13:13.877Z,14.13
2022-11-21T08:15:41.401Z,12.52
2022-11-21T08:18:10.202Z,9.38
2022-11-21T08:20:37.753Z,9.00
2022-11-21T08:23:04.839Z,10.35
2022-11-21T08:25:32.268Z,7.72
2022-11-21T08:27:59.605Z,11.70
2022-11-21T08:30:27.848Z,9.55
2022-11-21T08:32:54.726Z,7.80
2022-11-21T08:35:21.902Z,7.78
2022-11-21T08:37:49.159Z,10.90
2022-11-21T08:40:18.624Z,8.25
2022-11-21T08:42:45.941Z,13.57
2022-11-21T08:45:12.966Z,9.38
2022-11-21T08:47:40.196Z,13.57
2022-11-21T08:50:09.256Z,18.58
2022-11-21T08:52:36.462Z,10.40
2022-11-21T08:55:03.582Z,10.05
2022-11-21T08:57:31.604Z,8.48
2022-11-21T08:59:58.993Z,9.02
2022-11-21T09:02:25.954Z,13.15
2022-11-21T09:04:53.559Z,8.57
2022-11-21T09:07:22.250Z,9.55
2022-11-21T09:09:51.407Z,6.57
2022-11-21T09:12:18.860Z,9.23
2022-11-21T09:15:04.248Z,9.57
2022-11-21T09:17:49.914Z,10.60
2022-11-21T09:20:17.139Z,9.70
2022-11-21T09:22:44.600Z,8.88
2022-11-21T09:25:11.702Z,6.18
2022-11-21T09:27:38.889Z,10.70
2022-11-21T09:30:07.088Z,10.90
2022-11-21T09:32:37.280Z,3.67
2022-11-21T09:35:04.987Z,6.82
2022-11-21T09:37:37.690Z,7.68
2022-11-21T09:40:08.155Z,7.25
2022-11-21T09:43:00.198Z,6.13
2022-11-21T09:45:34.570Z,7.35
2022-11-21T09:48:08.781Z,7.88
2022-11-21T09:50:42.041Z,6.22
2022-11-21T09:53:14.410Z,7.07
2022-11-21T09:56:09.031Z,8.95
2022-11-21T09:58:48.537Z,9.98
2022-11-21T10:01:17.221Z,12.27
2022-11-21T10:03:50.401Z,10.55
2022-11-21T10:06:21.956Z,8.25
2022-11-21T10:09:13.779Z,9.15
2022-11-21T10:12:08.646Z,6.60
2022-11-21T10:14:38.064Z,4.45
2022-11-21T10:17:16.697Z,11.52
2022-11-21T10:19:50.042Z,8.35
2022-11-21T10:22:58.108Z,10.27
2022-11-21T10:25:30.368Z,6.57
2022-11-21T10:28:22.707Z,4.63
2022-11-21T10:30:52.648Z,8.90
2022-11-21T10:33:30.975Z,7.28
2022-11-21T10:36:02.918Z,11.60
2022-11-21T10:38:29.897Z,7.60
2022-11-21T10:41:07.567Z,9.32
2022-11-21T10:44:08.320Z,10.85
2022-11-21T10:46:35.535Z,9.35
2022-11-21T10:49:04.832Z,8.40
2022-11-21T10:51:43.620Z,9.85
2022-11-21T10:54:31.461Z,8.68
2022-11-21T10:57:06.208Z,15.77
2022-11-21T10:59:33.720Z,6.03
2022-11-21T11:02:10.925Z,8.88
2022-11-21T11:04:47.493Z,9.82
2022-11-21T11:07:27.316Z,8.63
2022-11-21T11:10:15.796Z,11.52
2022-11-21T11:13:02.093Z,11.43
2022-11-21T11:15:32.290Z,7.72
2022-11-21T11:18:09.391Z,6.95
2022-11-21T11:20:43.222Z,6.22
2022-11-21T11:23:23.512Z,8.43
2022-11-21T11:25:59.387Z,8.10
2022-11-21T11:28:33.400Z,15.45
2022-11-21T11:31:01.463Z,16.42
2022-11-21T11:33:40.044Z,9.10
2022-11-21T11:36:37.826Z,11.50
2022-11-21T11:39:19.354Z,10.20
2022-11-21T11:42:29.960Z,8.23
2022-11-21T11:45:35.293Z,8.23
2022-11-21T11:48:08.962Z,9.60
2022-11-21T11:50:46.889Z,8.90
2022-11-21T11:53:22.091Z,6.65
2022-11-21T11:55:53.762Z,15.25
2022-11-21T11:58:50.876Z,9.52
2022-11-21T12:01:38.956Z,9.15
2022-11-21T12:04:15.414Z,10.00
2022-11-21T12:09:47.186Z,15.18
2022-11-21T12:12:21.972Z,14.43
2022-11-21T12:15:26.532Z,12.75
2022-11-21T12:18:16.269Z,12.88
2022-11-21T12:21:07.701Z,9.05
2022-11-21T12:23:52.471Z,10.52
2022-11-21T12:26:55.601Z,10.02
2022-11-21T12:30:01.406Z,10.48
2022-11-21T12:33:09.444Z,10.20
2022-11-21T12:36:18.412Z,13.68
2022-11-21T12:39:05.704Z,12.35
2022-11-21T12:42:17.642Z,12.73
2022-11-21T12:44:57.304Z,14.98
2022-11-21T12:48:29.061Z,12.18
2022-11-21T12:51:26.689Z,10.68
2022-11-21T12:54:33.801Z,13.95
2022-11-21T12:57:14.334Z,16.02
2022-11-21T13:00:09.450Z,14.93
2022-11-21T13:02:57.467Z,16.08
2022-11-21T13:05:32.850Z,15.60
2022-11-21T13:08:04.165Z,13.23
2022-11-21T13:10:32.015Z,16.17
2022-11-21T13:13:29.576Z,15.10
2022-11-21T13:16:07.622Z,14.20
2022-11-21T13:18:44.631Z,24.05
2022-11-21T13:21:47.756Z,15.05
2022-11-21T13:24:45.365Z,15.45
2022-11-21T13:27:38.776Z,14.52
2022-11-21T13:30:11.807Z,11.65
2022-11-21T13:32:50.328Z,16.02
2022-11-21T13:35:20.403Z,20.02
2022-11-21T13:37:50.868Z,11.32
2022-11-21T13:40:27.360Z,13.00
2022-11-21T13:46:02.957Z,7.80
2022-11-21T13:48:36.451Z,10.35
2022-11-21T13:51:42.398Z,12.35
2022-11-21T13:54:55.496Z,15.43
2022-11-21T13:58:10.270Z,11.10
2022-11-21T14:01:14.731Z,8.60
2022-11-21T14:04:00.071Z,11.75
2022-11-21T14:06:38.445Z,13.48
2022-11-21T14:09:14.263Z,15.75
2022-11-21T14:11:50.033Z,8.43
2022-11-21T14:14:29.164Z,11.88
2022-11-21T14:17:23.590Z,5.60
2022-11-21T14:19:55.233Z,7.65
2022-11-21T14:22:45.534Z,6.38
2022-11-21T14:25:18.584Z,13.27
2022-11-21T14:27:52.704Z,7.15
2022-11-21T14:30:29.707Z,8.80
2022-11-21T14:32:57.175Z,7.30
2022-11-21T14:35:24.798Z,9.55
2022-11-21T14:37:53.722Z,8.10
2022-11-21T14:40:28.809Z,7.28
2022-11-21T14:42:56.071Z,6.85
2022-11-21T14:45:24.302Z,7.03
2022-11-21T14:47:53.640Z,12.15
2022-11-21T14:50:23.468Z,9.57
2022-11-21T14:52:57.689Z,8.52
2022-11-21T14:55:32.704Z,4.95
2022-11-21T14:58:02.422Z,6.28
2022-11-21T15:03:21.558Z,3.88
2022-11-21T15:06:07.012Z,6.72
2022-11-21T15:09:51.401Z,9.20
2022-11-21T15:11:29.214Z,9.00
2022-11-21T15:14:17.139Z,3.55
2022-11-21T15:16:50.342Z,9.52
2022-11-21T15:19:24.707Z,4.85
2022-11-21T15:21:54.210Z,9.57
2022-11-21T15:24:50.291Z,5.80
2022-11-21T15:28:22.519Z,9.70
2022-11-21T15:31:20.215Z,5.00
2022-11-21T15:37:04.345Z,8.60
2022-11-21T15:39:33.017Z,6.50
2022-11-21T15:42:34.180Z,6.05
2022-11-21T15:45:25.571Z,7.55
2022-11-21T15:47:53.080Z,7.80
2022-11-21T15:50:23.475Z,6.30
2022-11-21T15:52:52.699Z,6.80
2022-11-21T15:55:26.335Z,6.80
2022-11-21T15:57:53.723Z,7.10
2022-11-21T16:00:21.039Z,6.90
2022-11-21T16:02:47.927Z,6.85
2022-11-21T16:05:16.765Z,4.95
2022-11-21T16:07:44.007Z,8.05
2022-11-21T16:10:21.301Z,5.00
2022-11-21T16:12:51.154Z,7.45
2022-11-21T16:15:18.147Z,15.35
2022-11-21T16:17:47.356Z,12.73
2022-11-21T16:20:15.280Z,7.43
2022-11-21T16:22:47.071Z,8.48
2022-11-21T16:25:15.104Z,6.53
2022-11-21T16:27:42.252Z,7.80
2022-11-21T16:30:13.794Z,9.35
2022-11-21T16:32:40.990Z,8.90
2022-11-21T16:35:08.961Z,7.07
2022-11-21T16:37:36.163Z,10.13
2022-11-21T16:40:03.390Z,10.02
2022-11-21T16:42:31.290Z,12.27
2022-11-21T16:44:58.579Z,9.02
2022-11-21T16:47:25.680Z,10.85
2022-11-21T16:49:53.021Z,11.05
2022-11-21T16:52:40.411Z,9.82
2022-11-21T16:55:31.173Z,8.57
2022-11-21T16:58:03.561Z,5.78
2022-11-21T17:00:30.605Z,8.80
2022-11-21T17:02:58.220Z,5.78
2022-11-21T17:05:25.435Z,6.90
2022-11-21T17:07:52.748Z,9.38
2022-11-21T17:10:19.927Z,7.68
2022-11-21T17:12:47.256Z,12.50
2022-11-21T17:15:15.306Z,10.70
2022-11-21T17:17:42.291Z,10.93
2022-11-21T17:20:10.116Z,7.38
2022-11-21T17:22:37.203Z,10.02
2022-11-21T17:25:04.846Z,13.48
2022-11-21T17:27:38.960Z,9.55
2022-11-21T17:30:06.865Z,11.25
2022-11-21T17:32:34.434Z,11.52
2022-11-21T17:35:01.736Z,9.70
2022-11-21T17:37:28.707Z,10.45
2022-11-21T17:39:58.201Z,9.93
2022-11-21T17:42:26.925Z,7.72
2022-11-21T17:44:54.154Z,9.25
2022-11-21T17:47:21.288Z,10.98
2022-11-21T17:49:49.868Z,12.80
2022-11-21T17:52:17.222Z,15.68
2022-11-21T17:54:44.604Z,14.93
2022-11-21T17:57:11.745Z,13.82
2022-11-21T17:59:39.373Z,13.88
2022-11-21T18:02:06.924Z,10.82
2022-11-21T18:04:38.828Z,11.60
2022-11-21T18:07:08.710Z,9.93
2022-11-21T18:09:35.909Z,24.42
2022-11-21T18:12:03.074Z,9.00
2022-11-21T18:14:30.770Z,13.15
2022-11-21T18:16:58.030Z,9.57
2022-11-21T18:19:33.764Z,9.85
2022-11-21T18:22:00.837Z,12.15
2022-11-21T18:24:28.604Z,14.15
2022-11-21T18:27:00.754Z,10.15
2022-11-21T18:29:36.390Z,12.18
2022-11-21T18:32:05.389Z,14.27
2022-11-21T18:34:32.497Z,13.90
2022-11-21T18:36:59.706Z,11.88
2022-11-21T18:39:27.154Z,11.10
2022-11-21T18:41:54.197Z,9.63
2022-11-21T18:44:22.534Z,11.32
2022-11-21T18:46:50.298Z,16.23
2022-11-21T18:49:19.129Z,11.95
2022-11-21T18:52:46.415Z,12.68
2022-11-21T18:55:14.112Z,13.95
2022-11-21T18:57:41.180Z,17.33
2022-11-21T19:00:09.015Z,13.20
2022-11-21T19:02:36.304Z,14.88
2022-11-21T19:05:07.983Z,12.15
2022-11-21T20:10:07.458Z,9.38
2022-11-21T20:12:37.448Z,9.07
2022-11-21T20:15:04.601Z,12.45
2022-11-21T20:17:31.654Z,4.90
2022-11-21T20:20:00.082Z,10.52
2022-11-21T20:22:27.301Z,9.70
2022-11-21T20:24:54.687Z,9.18
2022-11-21T20:27:21.928Z,10.13
2022-11-21T20:29:49.456Z,9.80
2022-11-21T20:32:16.798Z,14.02
2022-11-21T20:34:44.080Z,10.23
2022-11-21T20:37:11.215Z,7.85
2022-11-21T20:39:38.760Z,10.65
2022-11-21T20:42:06.852Z,6.22
2022-11-21T20:45:30.023Z,7.05
2022-11-21T20:51:34.960Z,8.82
2022-11-21T20:53:51.398Z,6.82
2022-11-21T20:56:17.432Z,7.43
2022-11-21T20:58:45.394Z,8.68
2022-11-21T21:01:14.822Z,7.95
2022-11-21T21:03:42.826Z,9.73
2022-11-21T21:06:12.236Z,11.25
2022-11-21T21:08:40.375Z,5.70
2022-11-21T21:11:30.538Z,8.98
2022-11-21T21:13:59.863Z,8.63
2022-11-21T21:16:34.472Z,10.05
2022-11-21T21:19:01.576Z,6.93
2022-11-21T21:21:31.116Z,6.68
2022-11-21T21:24:02.568Z,7.32
2022-11-21T21:26:41.544Z,6.43
2022-11-21T21:29:11.717Z,4.97
2022-11-21T21:31:39.083Z,7.40
2022-11-21T21:34:06.574Z,9.07
2022-11-21T21:36:33.850Z,5.72
2022-11-21T21:39:01.073Z,5.05
2022-11-21T21:41:30.988Z,4.70
2022-11-21T21:43:58.776Z,4.00
2022-11-21T21:46:27.735Z,4.13
2022-11-21T21:48:57.511Z,3.72
2022-11-21T21:51:27.067Z,5.53
2022-11-21T21:53:55.845Z,2.95
2022-11-21T21:56:24.695Z,8.05
2022-11-21T21:58:52.522Z,4.82
2022-11-21T22:01:22.717Z,2.60
2022-11-21T22:03:53.764Z,4.80
2022-11-21T22:06:21.016Z,3.63
2022-11-21T22:08:49.617Z,3.58
2022-11-21T22:11:27.526Z,2.38
2022-11-21T22:14:00.416Z,6.60
2022-11-21T22:16:28.573Z,5.00
2022-11-21T22:18:56.133Z,4.03
2022-11-21T22:21:24.176Z,3.58
2022-11-21T22:24:23.067Z,3.67
2022-11-21T22:26:39.289Z,2.83
2022-11-21T22:29:06.850Z,6.72
2022-11-21T22:31:34.158Z,6.07
2022-11-21T22:34:01.933Z,3.20
2022-11-21T22:36:29.032Z,4.68
2022-11-21T22:38:56.794Z,6.88
2022-11-21T22:41:26.704Z,6.25
2022-11-21T22:43:56.114Z,5.47
2022-11-21T22:46:24.868Z,4.18
2022-11-21T22:48:51.997Z,2.67
2022-11-21T22:51:27.568Z,7.53
2022-11-21T22:53:55.002Z,8.57
2022-11-21T22:56:24.309Z,8.98
2022-11-21T22:59:26.277Z,4.55
2022-11-21T23:01:56.247Z,6.18
2022-11-21T23:04:23.246Z,6.97
2022-11-21T23:06:50.693Z,6.10
2022-11-21T23:09:17.524Z,8.13
2022-11-21T23:11:44.606Z,8.85
2022-11-21T23:14:27.130Z,8.05
2022-11-21T23:17:05.204Z,8.77
2022-11-21T23:19:32.484Z,8.07
2022-11-21T23:21:59.940Z,6.63
2022-11-21T23:24:31.260Z,13.60
2022-11-21T23:41:04.025Z,14.65
2022-11-21T23:43:55.355Z,13.48
2022-11-21T23:46:22.335Z,17.05
2022-11-21T23:48:49.370Z,11.55
2022-11-21T23:51:21.100Z,17.48
2022-11-21T23:53:48.332Z,15.48
2022-11-21T23:56:15.494Z,17.70
2022-11-21T23:58:46.150Z,15.90
